<?xml version='1.0' encoding='UTF-8'?><gpx version="1.1" creator="JPX - https://github.com/jenetics/jpx" xmlns="http://www.topografix.com/GPX/1/1"><trk><trkseg><trkpt lat="45.95682982825297" lon="7.668526768691529"><ele>2927.5</ele><time>2026-03-23T10:17:12.015Z</time></trkpt><trkpt lat="45.95683196563828" lon="7.668650485582341"><ele>2931.0</ele><time>2026-03-23T10:17:15Z</time></trkpt><trkpt lat="45.95687395897317" lon="7.668780824176658"><ele>2934.5</ele><time>2026-03-23T10:17:18Z</time></trkpt><trkpt lat="45.95688586127567" lon="7.668923065073479"><ele>2938.0</ele><time>2026-03-23T10:17:20Z</time></trkpt><trkpt lat="45.95688614393764" lon="7.669037746156089"><ele>2941.5</ele><time>2026-03-23T10:17:22Z</time></trkpt><trkpt lat="45.95687484173455" lon="7.669149072190153"><ele>2945.0</ele><time>2026-03-23T10:17:24Z</time></trkpt><trkpt lat="45.956814506931046" lon="7.6692372410182115"><ele>2945.0</ele><time>2026-03-23T10:17:26Z</time></trkpt><trkpt lat="45.95673234620363" lon="7.6692449421450055"><ele>2945.0</ele><time>2026-03-23T10:17:28Z</time></trkpt><trkpt lat="45.95665187781513" lon="7.669266139922433"><ele>2945.0</ele><time>2026-03-23T10:17:30Z</time></trkpt><trkpt lat="45.956528543227684" lon="7.6693068571086"><ele>2945.0</ele><time>2026-03-23T10:17:32Z</time></trkpt><trkpt lat="45.9564489822743" lon="7.6692675166114865"><ele>2945.0</ele><time>2026-03-23T10:17:33Z</time></trkpt><trkpt lat="45.956402277136554" lon="7.6691644495806575"><ele>2942.6</ele><time>2026-03-23T10:17:34Z</time></trkpt><trkpt lat="45.9563319811324" lon="7.669136952988121"><ele>2940.2</ele><time>2026-03-23T10:17:35Z</time></trkpt><trkpt lat="45.95623718617633" lon="7.669154854687243"><ele>2937.8</ele><time>2026-03-23T10:17:36Z</time></trkpt><trkpt lat="45.956163544779365" lon="7.669260803883639"><ele>2935.4</ele><time>2026-03-23T10:17:37Z</time></trkpt><trkpt lat="45.956074411889304" lon="7.66925667163726"><ele>2933.0</ele><time>2026-03-23T10:17:38Z</time></trkpt><trkpt lat="45.955992643020735" lon="7.669193848236551"><ele>2933.0</ele><time>2026-03-23T10:17:39Z</time></trkpt><trkpt lat="45.95590512269654" lon="7.669316331621817"><ele>2933.0</ele><time>2026-03-23T10:17:40Z</time></trkpt><trkpt lat="45.95578044996935" lon="7.669297986494644"><ele>2933.0</ele><time>2026-03-23T10:17:42Z</time></trkpt><trkpt lat="45.955710864101405" lon="7.669375280886304"><ele>2933.0</ele><time>2026-03-23T10:17:43Z</time></trkpt><trkpt lat="45.955657769392246" lon="7.669488395542334"><ele>2933.0</ele><time>2026-03-23T10:17:44Z</time></trkpt><trkpt lat="45.955566262333626" lon="7.669499335016106"><ele>2931.833333333333</ele><time>2026-03-23T10:17:45Z</time></trkpt><trkpt lat="45.955493206628475" lon="7.669455624317901"><ele>2930.6666666666665</ele><time>2026-03-23T10:17:46Z</time></trkpt><trkpt lat="45.955422914400664" lon="7.669536004622814"><ele>2929.5</ele><time>2026-03-23T10:17:47Z</time></trkpt><trkpt lat="45.95535427405191" lon="7.6696326939476505"><ele>2928.3333333333335</ele><time>2026-03-23T10:17:48Z</time></trkpt><trkpt lat="45.955266609996194" lon="7.669621626865458"><ele>2927.166666666667</ele><time>2026-03-23T10:17:49Z</time></trkpt><trkpt lat="45.95519793823605" lon="7.66968551535905"><ele>2926.0</ele><time>2026-03-23T10:17:50Z</time></trkpt><trkpt lat="45.95515096183325" lon="7.669788353727516"><ele>2926.0</ele><time>2026-03-23T10:17:51Z</time></trkpt><trkpt lat="45.95506335333009" lon="7.669773935601101"><ele>2926.0</ele><time>2026-03-23T10:17:52Z</time></trkpt><trkpt lat="45.954999358156286" lon="7.6698183971715785"><ele>2926.0</ele><time>2026-03-23T10:17:53Z</time></trkpt><trkpt lat="45.95495123179588" lon="7.669912083492746"><ele>2926.0</ele><time>2026-03-23T10:17:54Z</time></trkpt><trkpt lat="45.954867289013215" lon="7.669898008936992"><ele>2926.0</ele><time>2026-03-23T10:17:55Z</time></trkpt><trkpt lat="45.954779769243025" lon="7.669870005168571"><ele>2926.0</ele><time>2026-03-23T10:17:56Z</time></trkpt><trkpt lat="45.954701443140756" lon="7.669927958086701"><ele>2920.2000000000003</ele><time>2026-03-23T10:17:57Z</time></trkpt><trkpt lat="45.95460583472957" lon="7.6699052899782565"><ele>2914.4</ele><time>2026-03-23T10:17:58Z</time></trkpt><trkpt lat="45.954509195711594" lon="7.669895846810164"><ele>2908.6</ele><time>2026-03-23T10:17:59Z</time></trkpt><trkpt lat="45.95443477464715" lon="7.669989810468344"><ele>2902.8</ele><time>2026-03-23T10:18:00Z</time></trkpt><trkpt lat="45.954346749859454" lon="7.670009688691679"><ele>2897.0</ele><time>2026-03-23T10:18:01Z</time></trkpt><trkpt lat="45.95424656559781" lon="7.669984400954814"><ele>2891.3999999999996</ele><time>2026-03-23T10:18:02Z</time></trkpt><trkpt lat="45.954156211212485" lon="7.670062633424381"><ele>2885.7999999999997</ele><time>2026-03-23T10:18:03Z</time></trkpt><trkpt lat="45.954069359650696" lon="7.670083226896208"><ele>2880.2</ele><time>2026-03-23T10:18:04Z</time></trkpt><trkpt lat="45.954032673361326" lon="7.669964144989369"><ele>2874.6</ele><time>2026-03-23T10:18:05Z</time></trkpt><trkpt lat="45.9540572070307" lon="7.66982551048362"><ele>2869.0</ele><time>2026-03-23T10:18:06Z</time></trkpt><trkpt lat="45.95412866742136" lon="7.669712248753699"><ele>2869.0</ele><time>2026-03-23T10:18:07Z</time></trkpt><trkpt lat="45.95417166770362" lon="7.669602049300996"><ele>2869.0</ele><time>2026-03-23T10:18:08Z</time></trkpt><trkpt lat="45.95415464746938" lon="7.669491056103308"><ele>2869.0</ele><time>2026-03-23T10:18:09Z</time></trkpt><trkpt lat="45.95413187323768" lon="7.6693783072759985"><ele>2869.0</ele><time>2026-03-23T10:18:10Z</time></trkpt><trkpt lat="45.95418688552601" lon="7.669290984207397"><ele>2869.0</ele><time>2026-03-23T10:18:11Z</time></trkpt><trkpt lat="45.954245310149915" lon="7.669214177168043"><ele>2869.0</ele><time>2026-03-23T10:18:12Z</time></trkpt><trkpt lat="45.954224185893075" lon="7.6691047576834555"><ele>2866.6</ele><time>2026-03-23T10:18:13Z</time></trkpt><trkpt lat="45.95418228753" lon="7.669024639358802"><ele>2864.2</ele><time>2026-03-23T10:18:14Z</time></trkpt><trkpt lat="45.95411682014331" lon="7.668910460330171"><ele>2861.7999999999997</ele><time>2026-03-23T10:18:15Z</time></trkpt><trkpt lat="45.95416573865783" lon="7.668792740543006"><ele>2859.3999999999996</ele><time>2026-03-23T10:18:16Z</time></trkpt><trkpt lat="45.95413803576024" lon="7.668679048275312"><ele>2857.0</ele><time>2026-03-23T10:18:17Z</time></trkpt><trkpt lat="45.95414678943868" lon="7.668535441372168"><ele>2856.8333333333335</ele><time>2026-03-23T10:18:18Z</time></trkpt><trkpt lat="45.95419218951273" lon="7.668430131071785"><ele>2856.666666666667</ele><time>2026-03-23T10:18:19Z</time></trkpt><trkpt lat="45.954193804720326" lon="7.668309362624585"><ele>2856.5</ele><time>2026-03-23T10:18:20Z</time></trkpt><trkpt lat="45.954197878895336" lon="7.66818932815772"><ele>2856.3333333333335</ele><time>2026-03-23T10:18:21Z</time></trkpt><trkpt lat="45.954283456197025" lon="7.668122674621345"><ele>2856.1666666666665</ele><time>2026-03-23T10:18:22Z</time></trkpt><trkpt lat="45.954335764523975" lon="7.668047025575858"><ele>2856.0</ele><time>2026-03-23T10:18:23Z</time></trkpt><trkpt lat="45.95431520052974" lon="7.667946707336936"><ele>2856.0</ele><time>2026-03-23T10:18:24Z</time></trkpt><trkpt lat="45.9543341865994" lon="7.66783515697583"><ele>2856.0</ele><time>2026-03-23T10:18:25Z</time></trkpt><trkpt lat="45.954382335371626" lon="7.667758736364726"><ele>2856.0</ele><time>2026-03-23T10:18:26Z</time></trkpt><trkpt lat="45.95437661396145" lon="7.667654632198245"><ele>2856.0</ele><time>2026-03-23T10:18:27Z</time></trkpt><trkpt lat="45.954434353006924" lon="7.667569217905186"><ele>2856.0</ele><time>2026-03-23T10:18:28Z</time></trkpt><trkpt lat="45.95452559048897" lon="7.667502151217289"><ele>2856.0</ele><time>2026-03-23T10:18:29Z</time></trkpt><trkpt lat="45.954526702270954" lon="7.667375194641014"><ele>2849.0</ele><time>2026-03-23T10:18:30Z</time></trkpt><trkpt lat="45.954565728922326" lon="7.6672636573345265"><ele>2842.0</ele><time>2026-03-23T10:18:31Z</time></trkpt><trkpt lat="45.95463039563395" lon="7.667165231882623"><ele>2835.0</ele><time>2026-03-23T10:18:32Z</time></trkpt><trkpt lat="45.95458075183086" lon="7.6670425901202215"><ele>2828.0</ele><time>2026-03-23T10:18:33Z</time></trkpt><trkpt lat="45.954548492531146" lon="7.666905099145121"><ele>2821.0</ele><time>2026-03-23T10:18:34Z</time></trkpt><trkpt lat="45.9546238899425" lon="7.666792115717225"><ele>2814.6000000000004</ele><time>2026-03-23T10:18:35Z</time></trkpt><trkpt lat="45.954699643208706" lon="7.6666982769299885"><ele>2808.2</ele><time>2026-03-23T10:18:36Z</time></trkpt><trkpt lat="45.95466243210285" lon="7.6666100337284915"><ele>2801.8</ele><time>2026-03-23T10:18:37Z</time></trkpt><trkpt lat="45.95459070397677" lon="7.666516709095409"><ele>2795.3999999999996</ele><time>2026-03-23T10:18:38Z</time></trkpt><trkpt lat="45.954614905180925" lon="7.666402920226536"><ele>2789.0</ele><time>2026-03-23T10:18:39Z</time></trkpt><trkpt lat="45.95470863246428" lon="7.666327891971225"><ele>2789.0</ele><time>2026-03-23T10:18:40Z</time></trkpt><trkpt lat="45.9547473418827" lon="7.66624764828469"><ele>2789.0</ele><time>2026-03-23T10:18:41Z</time></trkpt><trkpt lat="45.95469561646237" lon="7.666148671281503"><ele>2789.0</ele><time>2026-03-23T10:18:42Z</time></trkpt><trkpt lat="45.95462194486633" lon="7.666030908809984"><ele>2789.0</ele><time>2026-03-23T10:18:43Z</time></trkpt><trkpt lat="45.954639551194745" lon="7.665895753200721"><ele>2789.0</ele><time>2026-03-23T10:18:44Z</time></trkpt><trkpt lat="45.95469790276449" lon="7.665781366565896"><ele>2782.3999999999996</ele><time>2026-03-23T10:18:45Z</time></trkpt><trkpt lat="45.95467352784485" lon="7.665638756839518"><ele>2775.8</ele><time>2026-03-23T10:18:46Z</time></trkpt><trkpt lat="45.954593542161305" lon="7.6655408656061095"><ele>2769.2</ele><time>2026-03-23T10:18:47Z</time></trkpt><trkpt lat="45.95455798431824" lon="7.66542005734354"><ele>2762.6000000000004</ele><time>2026-03-23T10:18:48Z</time></trkpt><trkpt lat="45.954590226597155" lon="7.665271901419424"><ele>2756.0</ele><time>2026-03-23T10:18:49Z</time></trkpt><trkpt lat="45.95453766204025" lon="7.665136784986298"><ele>2749.5</ele><time>2026-03-23T10:18:50Z</time></trkpt><trkpt lat="45.95444738843503" lon="7.6650450044800245"><ele>2743.0</ele><time>2026-03-23T10:18:51Z</time></trkpt><trkpt lat="45.9544388202067" lon="7.664882462211593"><ele>2736.5</ele><time>2026-03-23T10:18:52Z</time></trkpt><trkpt lat="45.95443489950482" lon="7.664703073682976"><ele>2730.0</ele><time>2026-03-23T10:18:53Z</time></trkpt><trkpt lat="45.954345606669584" lon="7.6645870241407605"><ele>2730.0</ele><time>2026-03-23T10:18:54Z</time></trkpt><trkpt lat="45.95424833947048" lon="7.664480551821093"><ele>2730.0</ele><time>2026-03-23T10:18:55Z</time></trkpt><trkpt lat="45.95424243086082" lon="7.664346140201201"><ele>2730.0</ele><time>2026-03-23T10:18:56Z</time></trkpt><trkpt lat="45.95427223827761" lon="7.664206310397057"><ele>2730.0</ele><time>2026-03-23T10:18:57Z</time></trkpt><trkpt lat="45.95427537666804" lon="7.664101518265436"><ele>2730.0</ele><time>2026-03-23T10:18:58Z</time></trkpt><trkpt lat="45.954197420344414" lon="7.664044622708022"><ele>2728.0</ele><time>2026-03-23T10:19:00Z</time></trkpt><trkpt lat="45.9542146471482" lon="7.663944525734073"><ele>2726.0</ele><time>2026-03-23T10:19:01Z</time></trkpt><trkpt lat="45.954162740479305" lon="7.663873943948001"><ele>2724.0</ele><time>2026-03-23T10:19:02Z</time></trkpt><trkpt lat="45.954106987460136" lon="7.663802368312245"><ele>2722.0</ele><time>2026-03-23T10:19:03Z</time></trkpt><trkpt lat="45.954088157850556" lon="7.663697247852348"><ele>2720.0</ele><time>2026-03-23T10:19:04Z</time></trkpt><trkpt lat="45.95401922232467" lon="7.663648499719001"><ele>2718.0</ele><time>2026-03-23T10:19:05Z</time></trkpt><trkpt lat="45.95396912609594" lon="7.663565356167367"><ele>2716.0</ele><time>2026-03-23T10:19:06Z</time></trkpt><trkpt lat="45.953995786515534" lon="7.663439184213111"><ele>2712.0</ele><time>2026-03-23T10:19:07Z</time></trkpt><trkpt lat="45.953940068375324" lon="7.663374768175121"><ele>2708.0</ele><time>2026-03-23T10:19:08Z</time></trkpt><trkpt lat="45.953877683879426" lon="7.663302397086679"><ele>2704.0</ele><time>2026-03-23T10:19:09Z</time></trkpt><trkpt lat="45.9539082819183" lon="7.6631731091742274"><ele>2700.0</ele><time>2026-03-23T10:19:10Z</time></trkpt><trkpt lat="45.95386328658452" lon="7.663070808492332"><ele>2696.0</ele><time>2026-03-23T10:19:11Z</time></trkpt><trkpt lat="45.953831958445434" lon="7.662949225552069"><ele>2692.0</ele><time>2026-03-23T10:19:13Z</time></trkpt><trkpt lat="45.95377631214122" lon="7.662832090098776"><ele>2685.6</ele><time>2026-03-23T10:19:15Z</time></trkpt><trkpt lat="45.953811590180464" lon="7.662685324593539"><ele>2679.2</ele><time>2026-03-23T10:19:17Z</time></trkpt><trkpt lat="45.953827270048656" lon="7.6625560601192735"><ele>2672.8</ele><time>2026-03-23T10:19:18Z</time></trkpt><trkpt lat="45.95377668830032" lon="7.662419650934342"><ele>2666.4</ele><time>2026-03-23T10:19:19Z</time></trkpt><trkpt lat="45.953828918481705" lon="7.6622713500792505"><ele>2660.0</ele><time>2026-03-23T10:19:20Z</time></trkpt><trkpt lat="45.953883551134965" lon="7.6621184093521935"><ele>2654.25</ele><time>2026-03-23T10:19:21Z</time></trkpt><trkpt lat="45.953835192922845" lon="7.661931870740267"><ele>2648.5</ele><time>2026-03-23T10:19:22Z</time></trkpt><trkpt lat="45.95380624048555" lon="7.661691528217285"><ele>2642.75</ele><time>2026-03-23T10:19:23Z</time></trkpt><trkpt lat="45.95382128930114" lon="7.661495550032426"><ele>2637.0</ele><time>2026-03-23T10:19:24Z</time></trkpt><trkpt lat="45.953749487817475" lon="7.661345425896024"><ele>2637.0</ele><time>2026-03-23T10:19:25Z</time></trkpt><trkpt lat="45.953656594492216" lon="7.661216420657316"><ele>2637.0</ele><time>2026-03-23T10:19:26Z</time></trkpt><trkpt lat="45.95359336270176" lon="7.661070747990891"><ele>2637.0</ele><time>2026-03-23T10:19:27Z</time></trkpt><trkpt lat="45.95353576078508" lon="7.6609150302970805"><ele>2637.0</ele><time>2026-03-23T10:19:28Z</time></trkpt><trkpt lat="45.95348263403138" lon="7.660757120046908"><ele>2634.0</ele><time>2026-03-23T10:19:29Z</time></trkpt><trkpt lat="45.953426594337806" lon="7.6605932499406055"><ele>2631.0</ele><time>2026-03-23T10:19:30Z</time></trkpt><trkpt lat="45.95337198293809" lon="7.660440950756754"><ele>2628.0</ele><time>2026-03-23T10:19:31Z</time></trkpt><trkpt lat="45.95331697553286" lon="7.660292409856418"><ele>2625.0</ele><time>2026-03-23T10:19:32Z</time></trkpt><trkpt lat="45.953260090627325" lon="7.6601447275499055"><ele>2623.2</ele><time>2026-03-23T10:19:33Z</time></trkpt><trkpt lat="45.95321432305768" lon="7.659993228959132"><ele>2621.4</ele><time>2026-03-23T10:19:34Z</time></trkpt><trkpt lat="45.95316858739982" lon="7.659850228070492"><ele>2619.6000000000004</ele><time>2026-03-23T10:19:35Z</time></trkpt><trkpt lat="45.95312644458676" lon="7.659716014184927"><ele>2617.8</ele><time>2026-03-23T10:19:36Z</time></trkpt><trkpt lat="45.95308380192994" lon="7.65958656985525"><ele>2616.0</ele><time>2026-03-23T10:19:37Z</time></trkpt><trkpt lat="45.953046917967065" lon="7.659461705648873"><ele>2613.4</ele><time>2026-03-23T10:19:38Z</time></trkpt><trkpt lat="45.9529969169399" lon="7.659337066353233"><ele>2610.8</ele><time>2026-03-23T10:19:39Z</time></trkpt><trkpt lat="45.95295788504162" lon="7.659220336795758"><ele>2608.2000000000003</ele><time>2026-03-23T10:19:40Z</time></trkpt><trkpt lat="45.95291124878945" lon="7.659103128339507"><ele>2605.6000000000004</ele><time>2026-03-23T10:19:41Z</time></trkpt><trkpt lat="45.952857551531295" lon="7.658984648597634"><ele>2603.0</ele><time>2026-03-23T10:19:42Z</time></trkpt><trkpt lat="45.952804563683394" lon="7.658858333334212"><ele>2603.0</ele><time>2026-03-23T10:19:43Z</time></trkpt><trkpt lat="45.95275411287677" lon="7.6587342774339495"><ele>2603.0</ele><time>2026-03-23T10:19:44Z</time></trkpt><trkpt lat="45.952708275036024" lon="7.658610634179655"><ele>2603.0</ele><time>2026-03-23T10:19:45Z</time></trkpt><trkpt lat="45.95266215700579" lon="7.658477601140523"><ele>2603.0</ele><time>2026-03-23T10:19:46Z</time></trkpt><trkpt lat="45.952615243658144" lon="7.6583465128031145"><ele>2603.0</ele><time>2026-03-23T10:19:47Z</time></trkpt><trkpt lat="45.95255595444426" lon="7.658209969104933"><ele>2601.0</ele><time>2026-03-23T10:19:48Z</time></trkpt><trkpt lat="45.952483736631805" lon="7.658065573443178"><ele>2599.0</ele><time>2026-03-23T10:19:49Z</time></trkpt><trkpt lat="45.95241039293999" lon="7.657934478470412"><ele>2597.0</ele><time>2026-03-23T10:19:50Z</time></trkpt><trkpt lat="45.952326612935124" lon="7.657804586633395"><ele>2595.0</ele><time>2026-03-23T10:19:51Z</time></trkpt><trkpt lat="45.952233239037845" lon="7.657675830474233"><ele>2592.25</ele><time>2026-03-23T10:19:52Z</time></trkpt><trkpt lat="45.952147494376796" lon="7.657546487726574"><ele>2589.5</ele><time>2026-03-23T10:19:53Z</time></trkpt><trkpt lat="45.952053470011094" lon="7.657411404181861"><ele>2586.75</ele><time>2026-03-23T10:19:54Z</time></trkpt><trkpt lat="45.95196093086603" lon="7.657280291567431"><ele>2584.0</ele><time>2026-03-23T10:19:55Z</time></trkpt><trkpt lat="45.951864118145735" lon="7.657152280457636"><ele>2584.0</ele><time>2026-03-23T10:19:56Z</time></trkpt><trkpt lat="45.951766604255354" lon="7.657031411404801"><ele>2584.0</ele><time>2026-03-23T10:19:57Z</time></trkpt><trkpt lat="45.951674835087715" lon="7.656906319044445"><ele>2584.0</ele><time>2026-03-23T10:19:58Z</time></trkpt><trkpt lat="45.9515820995752" lon="7.656788758592086"><ele>2584.0</ele><time>2026-03-23T10:19:59Z</time></trkpt><trkpt lat="45.95150195286181" lon="7.656664091080862"><ele>2581.3999999999996</ele><time>2026-03-23T10:20:00Z</time></trkpt><trkpt lat="45.95142066681347" lon="7.656550412513553"><ele>2578.8</ele><time>2026-03-23T10:20:01Z</time></trkpt><trkpt lat="45.95135088175411" lon="7.656427561161036"><ele>2576.2</ele><time>2026-03-23T10:20:02Z</time></trkpt><trkpt lat="45.951304764313775" lon="7.656288589342424"><ele>2573.6000000000004</ele><time>2026-03-23T10:20:03Z</time></trkpt><trkpt lat="45.95124725982847" lon="7.656141481696111"><ele>2571.0</ele><time>2026-03-23T10:20:04Z</time></trkpt><trkpt lat="45.95117650453222" lon="7.65600234383048"><ele>2567.75</ele><time>2026-03-23T10:20:05Z</time></trkpt><trkpt lat="45.95114646728305" lon="7.655836994326578"><ele>2564.5</ele><time>2026-03-23T10:20:06Z</time></trkpt><trkpt lat="45.951082760862626" lon="7.655703406511658"><ele>2561.25</ele><time>2026-03-23T10:20:07Z</time></trkpt><trkpt lat="45.95098422494946" lon="7.655582336411487"><ele>2558.0</ele><time>2026-03-23T10:20:08Z</time></trkpt><trkpt lat="45.950969320199846" lon="7.655383847471977"><ele>2554.5</ele><time>2026-03-23T10:20:09Z</time></trkpt><trkpt lat="45.95090874967786" lon="7.6552158925154865"><ele>2551.0</ele><time>2026-03-23T10:20:10Z</time></trkpt><trkpt lat="45.95081487928432" lon="7.655090469888476"><ele>2547.5</ele><time>2026-03-23T10:20:11Z</time></trkpt><trkpt lat="45.95078523815575" lon="7.654901218010468"><ele>2544.0</ele><time>2026-03-23T10:20:12Z</time></trkpt><trkpt lat="45.95069829334813" lon="7.654732569059049"><ele>2540.3333333333335</ele><time>2026-03-23T10:20:13Z</time></trkpt><trkpt lat="45.950596438393084" lon="7.654586908675478"><ele>2536.666666666667</ele><time>2026-03-23T10:20:14Z</time></trkpt><trkpt lat="45.95053540978735" lon="7.654376502152245"><ele>2533.0</ele><time>2026-03-23T10:20:15Z</time></trkpt><trkpt lat="45.95043178850194" lon="7.654203715459207"><ele>2525.666666666667</ele><time>2026-03-23T10:20:16Z</time></trkpt><trkpt lat="45.950285823256905" lon="7.654094264805736"><ele>2518.3333333333335</ele><time>2026-03-23T10:20:17Z</time></trkpt><trkpt lat="45.95019603316122" lon="7.653911626641544"><ele>2511.0</ele><time>2026-03-23T10:20:18Z</time></trkpt><trkpt lat="45.95014801731161" lon="7.653718869465004"><ele>2505.75</ele><time>2026-03-23T10:20:19Z</time></trkpt><trkpt lat="45.950039234477224" lon="7.653609209612031"><ele>2500.5</ele><time>2026-03-23T10:20:20Z</time></trkpt><trkpt lat="45.94991356875702" lon="7.653528031940225"><ele>2495.25</ele><time>2026-03-23T10:20:21Z</time></trkpt><trkpt lat="45.949821336861625" lon="7.653425845032923"><ele>2490.0</ele><time>2026-03-23T10:20:22Z</time></trkpt><trkpt lat="45.94973030638048" lon="7.653307151540292"><ele>2490.0</ele><time>2026-03-23T10:20:23Z</time></trkpt><trkpt lat="45.949646185964966" lon="7.65320835287849"><ele>2490.0</ele><time>2026-03-23T10:20:24Z</time></trkpt><trkpt lat="45.94955056190126" lon="7.653117895458165"><ele>2490.0</ele><time>2026-03-23T10:20:25Z</time></trkpt><trkpt lat="45.94945734839876" lon="7.653007187650685"><ele>2490.0</ele><time>2026-03-23T10:20:26Z</time></trkpt><trkpt lat="45.94936883928609" lon="7.652893651096378"><ele>2487.0</ele><time>2026-03-23T10:20:27Z</time></trkpt><trkpt lat="45.9492820887733" lon="7.652760206716788"><ele>2484.0</ele><time>2026-03-23T10:20:28Z</time></trkpt><trkpt lat="45.949206450599114" lon="7.652613656116879"><ele>2481.0</ele><time>2026-03-23T10:20:29Z</time></trkpt><trkpt lat="45.94915394294311" lon="7.652456052057312"><ele>2478.0</ele><time>2026-03-23T10:20:30Z</time></trkpt><trkpt lat="45.94911517026914" lon="7.652297134913648"><ele>2478.0</ele><time>2026-03-23T10:20:31Z</time></trkpt><trkpt lat="45.94908333654815" lon="7.652139783080875"><ele>2478.0</ele><time>2026-03-23T10:20:32Z</time></trkpt><trkpt lat="45.94905131685015" lon="7.651987175814015"><ele>2478.0</ele><time>2026-03-23T10:20:33Z</time></trkpt><trkpt lat="45.949018817448966" lon="7.651839199770831"><ele>2478.0</ele><time>2026-03-23T10:20:34Z</time></trkpt><trkpt lat="45.948987656111555" lon="7.651692398402064"><ele>2478.0</ele><time>2026-03-23T10:20:35Z</time></trkpt><trkpt lat="45.948939304568675" lon="7.651533314698268"><ele>2475.25</ele><time>2026-03-23T10:20:36Z</time></trkpt><trkpt lat="45.94892033480274" lon="7.651368080387924"><ele>2472.5</ele><time>2026-03-23T10:20:37Z</time></trkpt><trkpt lat="45.948931537553825" lon="7.65117619953342"><ele>2469.75</ele><time>2026-03-23T10:20:38Z</time></trkpt><trkpt lat="45.94890417620146" lon="7.651027459994168"><ele>2467.0</ele><time>2026-03-23T10:20:39Z</time></trkpt><trkpt lat="45.94881513464411" lon="7.650894159551922"><ele>2465.4</ele><time>2026-03-23T10:20:40Z</time></trkpt><trkpt lat="45.948747676069765" lon="7.6507669711950586"><ele>2463.7999999999997</ele><time>2026-03-23T10:20:41Z</time></trkpt><trkpt lat="45.94874915765973" lon="7.650596851683826"><ele>2462.2</ele><time>2026-03-23T10:20:42Z</time></trkpt><trkpt lat="45.94875354234119" lon="7.6504477548753735"><ele>2460.6</ele><time>2026-03-23T10:20:43Z</time></trkpt><trkpt lat="45.94867684670187" lon="7.6503233042117"><ele>2459.0</ele><time>2026-03-23T10:20:44Z</time></trkpt><trkpt lat="45.94858374701428" lon="7.650229781213629"><ele>2457.25</ele><time>2026-03-23T10:20:45Z</time></trkpt><trkpt lat="45.948505418875364" lon="7.650109603891721"><ele>2455.5</ele><time>2026-03-23T10:20:46Z</time></trkpt><trkpt lat="45.94844423099319" lon="7.649964640849545"><ele>2453.75</ele><time>2026-03-23T10:20:47Z</time></trkpt><trkpt lat="45.94837742414779" lon="7.649804228869339"><ele>2452.0</ele><time>2026-03-23T10:20:48Z</time></trkpt><trkpt lat="45.948409408106784" lon="7.649510234001692"><ele>2449.3333333333335</ele><time>2026-03-23T10:20:49Z</time></trkpt><trkpt lat="45.9483081481828" lon="7.649367648802817"><ele>2446.6666666666665</ele><time>2026-03-23T10:20:50Z</time></trkpt><trkpt lat="45.948090500461454" lon="7.649458815533132"><ele>2444.0</ele><time>2026-03-23T10:20:51Z</time></trkpt><trkpt lat="45.948018783593795" lon="7.649324995758919"><ele>2442.2</ele><time>2026-03-23T10:20:52Z</time></trkpt><trkpt lat="45.947934016348995" lon="7.649220449165771"><ele>2440.4</ele><time>2026-03-23T10:20:53Z</time></trkpt><trkpt lat="45.94784916876462" lon="7.649139935019009"><ele>2438.6</ele><time>2026-03-23T10:20:54Z</time></trkpt><trkpt lat="45.94774389933188" lon="7.649160898210205"><ele>2436.8</ele><time>2026-03-23T10:20:55Z</time></trkpt><trkpt lat="45.947675039857224" lon="7.649160657928352"><ele>2435.0</ele><time>2026-03-23T10:20:56Z</time></trkpt><trkpt lat="45.94759927845043" lon="7.649198253142226"><ele>2434.9999999999995</ele><time>2026-03-23T10:20:58Z</time></trkpt><trkpt lat="45.94759613352745" lon="7.649297976663072"><ele>2435.0</ele><time>2026-03-23T10:21:00Z</time></trkpt><trkpt lat="45.947524900329995" lon="7.649270492270044"><ele>2435.0</ele><time>2026-03-23T10:21:02Z</time></trkpt><trkpt lat="45.94752395895451" lon="7.6493686950351"><ele>2435.0</ele><time>2026-03-23T10:21:04Z</time></trkpt><trkpt lat="45.9475181902911" lon="7.649460214252088"><ele>2435.0</ele><time>2026-03-23T10:21:16Z</time></trkpt><trkpt lat="45.947528131803125" lon="7.649553375731662"><ele>2434.9999999999995</ele><time>2026-03-23T10:21:22Z</time></trkpt><trkpt lat="45.94753080777078" lon="7.649646277560225"><ele>2435.0</ele><time>2026-03-23T10:21:29Z</time></trkpt><trkpt lat="45.94756161465313" lon="7.649729299820626"><ele>2444.0</ele><time>2026-03-23T10:21:41Z</time></trkpt><trkpt lat="45.9475986794984" lon="7.649813630897586"><ele>2444.0</ele><time>2026-03-23T10:21:46Z</time></trkpt><trkpt lat="45.94765982208507" lon="7.649780201629578"><ele>2444.0</ele><time>2026-03-23T10:21:51Z</time></trkpt></trkseg></trk></gpx>